Terminal Aerodrome Forecast
Issued by NWS

Home | Current Version | Previous Version | Text Only | Print | Product List | Glossary On
Versions: 1 2 3 4 5 6 7 8 9 10 11 12 13 14
000
FTUS43 KGRB 281143 RRA
TAFMTW
TAF
KMTW 281143Z 2812/2912 17010KT 1 1/2SM BR OVC002
      TEMPO 2812/2815 3SM BR BKN005 OVC060
     FM281500 17013KT 5SM BR BKN012 OVC050
     FM282100 17013KT P6SM SCT025 BKN050
      TEMPO 2823/2903 4SM TSRA BKN025CB
     FM290400 20006KT 6SM BR BKN025 BKN070
      TEMPO 2908/2912 4SM BR BKN005=

USA.gov is the U.S. government's official web portal to all federal, state and local government web resources and services.